Time;durP1;ratioP1;P1;durP2;ratioP2;P2;SDS_P1;SDS_P2;PMS_P1;PMS_P2;Temp;Humidity;BMP_temperature;BMP_pressure;BME280_temperature;BME280_humidity;BME280_pressure;Samples;Min_cycle;Max_cycle;Signal;HPM_P1;HPM_P2
2021/11/24 05:01:33;;;;;;;20.93;18.47;;;-0.70;99.90;;;;;;5475122;23;21023;-70
2021/11/24 05:03:59;;;;;;;22.97;19.10;;;-0.70;99.90;;;;;;4981836;28;20451;-70
2021/11/24 05:06:26;;;;;;;23.77;19.63;;;-0.70;99.90;;;;;;4977670;28;20451;-70
2021/11/24 05:08:53;;;;;;;24.57;20.40;;;-0.70;99.90;;;;;;4977854;28;20517;-70
2021/11/24 05:11:20;;;;;;;27.70;24.37;;;-0.70;99.90;;;;;;4977470;28;20487;-70
2021/11/24 05:13:51;;;;;;;29.70;22.70;;;-0.80;99.90;;;;;;4977256;28;20482;-70
2021/11/24 05:16:19;;;;;;;30.90;23.30;;;-0.70;99.90;;;;;;4977316;28;20449;-70
2021/11/24 05:18:48;;;;;;;32.77;24.07;;;-0.60;99.90;;;;;;4976841;28;20455;-70
2021/11/24 05:21:19;;;;;;;32.80;23.90;;;-0.60;99.90;;;;;;4976810;28;20475;-70
2021/11/24 05:23:45;;;;;;;30.00;24.40;;;-0.50;99.90;;;;;;4976647;28;20439;-73
2021/11/24 05:26:12;;;;;;;32.17;25.33;;;-0.60;99.90;;;;;;4976525;28;20462;-71
2021/11/24 05:28:39;;;;;;;29.23;24.60;;;-0.50;99.90;;;;;;4976595;28;20463;-70
2021/11/24 05:31:07;;;;;;;29.70;23.83;;;-0.40;99.90;;;;;;4976408;28;20487;-71
2021/11/24 05:33:35;;;;;;;31.37;23.47;;;-0.40;99.90;;;;;;4976515;28;20525;-70
2021/11/24 05:36:04;;;;;;;25.33;21.80;;;-0.30;99.90;;;;;;4976162;28;20458;-69
2021/11/24 05:38:31;;;;;;;29.63;22.80;;;-0.30;99.90;;;;;;4976052;28;20898;-70
2021/11/24 05:40:57;;;;;;;31.80;22.90;;;-0.20;99.90;;;;;;4976338;28;20550;-71
2021/11/24 05:43:26;;;;;;;25.50;22.50;;;-0.20;99.90;;;;;;4976312;28;20459;-71
2021/11/24 05:48:34;;;;;;;26.97;21.47;;;-0.10;99.90;;;;;;4979381;28;20439;-71
2021/11/24 05:51:02;;;;;;;27.57;22.27;;;-0.10;99.90;;;;;;4976508;28;20541;-69
2021/11/24 05:53:29;;;;;;;30.80;24.23;;;-0.20;99.90;;;;;;4976647;28;20868;-65
2021/11/24 05:55:56;;;;;;;25.40;19.30;;;-0.20;99.90;;;;;;4976777;28;20463;-65
2021/11/24 05:58:23;;;;;;;27.90;19.10;;;0.30;99.90;;;;;;4976537;28;20467;-66
2021/11/24 06:00:49;;;;;;;20.90;16.00;;;0.80;99.90;;;;;;4976334;28;20483;-65
2021/11/24 06:03:16;;;;;;;18.60;16.33;;;1.30;99.90;;;;;;4976243;28;20466;-65
2021/11/24 06:05:43;;;;;;;22.27;16.50;;;1.70;99.90;;;;;;4980446;28;20542;-66
2021/11/24 06:08:11;;;;;;;22.50;18.63;;;1.60;99.90;;;;;;4991903;28;20435;-66
2021/11/24 06:10:37;;;;;;;20.93;17.40;;;1.40;99.90;;;;;;4987787;28;20482;-67
2021/11/24 06:13:04;;;;;;;19.67;16.70;;;1.30;99.90;;;;;;4977114;28;20451;-65
2021/11/24 06:15:31;;;;;;;24.00;16.87;;;1.10;99.90;;;;;;4976188;28;20533;-68
2021/11/24 06:17:58;;;;;;;20.43;17.20;;;1.10;99.90;;;;;;4976007;28;20461;-67
2021/11/24 06:20:26;;;;;;;21.40;18.40;;;1.00;99.90;;;;;;4975607;28;20463;-68
2021/11/24 06:22:53;;;;;;;21.97;17.90;;;1.00;99.90;;;;;;4975887;28;20482;-67
2021/11/24 06:25:21;;;;;;;20.87;17.70;;;1.00;99.90;;;;;;4975868;28;20454;-70
2021/11/24 06:27:48;;;;;;;26.00;19.40;;;1.00;99.90;;;;;;4975952;28;20447;-69
2021/11/24 06:30:17;;;;;;;22.80;19.10;;;0.90;99.90;;;;;;4976805;28;20455;-68
2021/11/24 06:32:45;;;;;;;20.13;18.00;;;0.90;99.90;;;;;;4976030;28;20455;-70
2021/11/24 06:35:12;;;;;;;24.80;19.50;;;0.90;99.90;;;;;;4975540;28;20482;-69
2021/11/24 06:37:39;;;;;;;25.33;18.70;;;0.80;99.90;;;;;;4975564;28;20509;-69
2021/11/24 06:40:08;;;;;;;25.27;18.40;;;0.80;99.90;;;;;;4975442;28;20514;-69
2021/11/24 06:42:36;;;;;;;20.47;17.70;;;0.80;99.90;;;;;;4975760;28;20490;-68
2021/11/24 06:45:03;;;;;;;24.80;19.43;;;0.70;99.90;;;;;;4975734;28;20513;-68
2021/11/24 06:47:30;;;;;;;24.23;18.87;;;0.70;99.90;;;;;;4977928;28;21004;-69
2021/11/24 06:49:57;;;;;;;25.73;20.03;;;0.60;99.90;;;;;;4977903;28;20455;-70
2021/11/24 06:52:23;;;;;;;30.57;21.30;;;0.50;99.90;;;;;;4976173;28;20479;-69
2021/11/24 06:54:50;;;;;;;25.40;20.40;;;0.50;99.90;;;;;;4975820;28;20454;-69
2021/11/24 06:57:17;;;;;;;25.60;21.00;;;0.50;99.90;;;;;;4975745;28;20459;-69
2021/11/24 06:59:45;;;;;;;25.03;20.50;;;0.50;99.90;;;;;;4975518;28;20451;-69
2021/11/24 07:02:12;;;;;;;25.23;21.50;;;0.50;99.90;;;;;;4975171;28;20479;-70
2021/11/24 07:04:38;;;;;;;26.20;22.73;;;0.40;99.90;;;;;;4975436;28;20467;-69
2021/11/24 07:07:05;;;;;;;27.70;22.27;;;0.40;99.90;;;;;;4975564;28;20867;-69
2021/11/24 07:09:32;;;;;;;28.80;22.40;;;0.30;99.90;;;;;;4975392;28;20462;-69
2021/11/24 07:11:59;;;;;;;30.37;24.97;;;0.30;99.90;;;;;;4974882;28;20483;-70
2021/11/24 07:14:25;;;;;;;34.00;23.90;;;0.20;99.90;;;;;;4975432;28;20501;-69
2021/11/24 07:16:54;;;;;;;35.03;24.63;;;0.20;99.90;;;;;;4975861;28;20486;-69
2021/11/24 07:19:22;;;;;;;36.77;25.47;;;0.30;99.90;;;;;;4978662;28;20455;-69
2021/11/24 07:21:49;;;;;;;30.20;22.97;;;0.50;99.90;;;;;;4974923;28;20467;-68
2021/11/24 07:24:16;;;;;;;28.57;22.33;;;0.70;99.90;;;;;;4975176;28;20514;-69
2021/11/24 07:26:42;;;;;;;28.50;21.40;;;1.00;99.90;;;;;;4975034;28;20463;-69
2021/11/24 07:29:10;;;;;;;23.90;19.27;;;1.30;99.90;;;;;;4976566;28;20505;-69
2021/11/24 07:31:36;;;;;;;25.30;19.07;;;1.50;99.90;;;;;;4978468;28;20483;-69
2021/11/24 07:34:05;;;;;;;25.40;18.80;;;1.60;99.90;;;;;;4978170;28;20802;-70
2021/11/24 07:36:31;;;;;;;22.50;17.90;;;1.80;99.90;;;;;;4978303;28;20462;-70
2021/11/24 07:38:58;;;;;;;20.40;18.00;;;2.20;99.90;;;;;;4978363;28;20872;-70
2021/11/24 07:41:25;;;;;;;21.07;17.07;;;2.50;99.90;;;;;;4978359;28;20486;-70
2021/11/24 07:43:52;;;;;;;21.17;15.53;;;3.00;99.90;;;;;;4978199;28;20462;-70
2021/11/24 07:46:19;;;;;;;15.67;14.07;;;3.60;99.90;;;;;;4978334;28;20485;-68
2021/11/24 07:48:45;;;;;;;20.13;15.10;;;4.20;99.90;;;;;;4978064;28;20463;-69
2021/11/24 07:51:17;;;;;;;15.37;11.77;;;4.90;99.90;;;;;;4977948;28;20479;-70
2021/11/24 07:53:44;;;;;;;18.40;13.60;;;5.30;99.90;;;;;;4979008;28;20501;-70
2021/11/24 07:56:11;;;;;;;17.33;14.37;;;5.70;99.90;;;;;;4978695;28;20435;-70
2021/11/24 07:58:40;;;;;;;16.70;13.73;;;6.10;99.90;;;;;;4978332;28;20502;-69
2021/11/24 08:01:07;;;;;;;16.97;14.03;;;6.60;99.90;;;;;;4977836;28;20489;-69
2021/11/24 08:03:33;;;;;;;16.50;13.43;;;7.00;99.90;;;;;;4977870;28;20820;-69
2021/11/24 08:06:00;;;;;;;17.10;15.20;;;7.70;99.90;;;;;;4978499;28;20455;-69
2021/11/24 08:08:28;;;;;;;17.57;14.17;;;8.30;99.90;;;;;;4978479;28;20942;-69
2021/11/24 08:10:55;;;;;;;17.13;14.20;;;8.40;99.90;;;;;;4978370;28;20490;-69
2021/11/24 08:13:22;;;;;;;19.67;14.80;;;7.80;99.90;;;;;;4978268;28;20443;-70
2021/11/24 08:15:49;;;;;;;19.17;15.00;;;7.10;99.90;;;;;;4978031;28;20471;-70
2021/11/24 08:18:15;;;;;;;20.33;15.80;;;6.30;99.90;;;;;;4977785;28;20454;-69
2021/11/24 08:20:42;;;;;;;22.37;15.80;;;5.50;99.90;;;;;;4977413;28;20486;-70
2021/11/24 08:23:09;;;;;;;21.87;17.60;;;5.00;99.90;;;;;;4977835;28;20439;-69
2021/11/24 08:25:38;;;;;;;30.43;17.83;;;4.60;99.90;;;;;;4977224;28;20461;-69
2021/11/24 08:28:05;;;;;;;19.50;16.93;;;4.10;99.90;;;;;;4977454;28;20850;-69
2021/11/24 08:30:32;;;;;;;23.20;18.27;;;3.80;99.90;;;;;;4977419;28;20463;-69
2021/11/24 08:32:58;;;;;;;23.53;17.87;;;3.60;99.90;;;;;;4978771;28;20877;-69
2021/11/24 08:35:25;;;;;;;23.23;18.13;;;3.30;99.90;;;;;;4977828;28;20455;-69
2021/11/24 08:37:52;;;;;;;24.30;18.30;;;3.10;99.90;;;;;;4977255;28;20454;-69
2021/11/24 08:40:21;;;;;;;25.40;18.83;;;2.90;99.90;;;;;;4976908;28;20870;-68
2021/11/24 08:42:49;;;;;;;30.03;19.90;;;2.70;99.90;;;;;;4977329;28;20502;-69
2021/11/24 08:45:16;;;;;;;23.30;19.10;;;2.60;99.90;;;;;;4977685;28;20455;-69
2021/11/24 08:47:43;;;;;;;29.47;20.50;;;2.50;99.90;;;;;;4977247;28;20863;-69
2021/11/24 08:50:12;;;;;;;28.97;20.63;;;2.50;99.90;;;;;;4978460;28;20538;-70
2021/11/24 08:52:39;;;;;;;25.53;19.70;;;2.40;99.90;;;;;;4976778;28;20837;-68
2021/11/24 08:55:08;;;;;;;28.57;20.20;;;2.40;99.90;;;;;;4977024;28;20455;-69
2021/11/24 08:57:35;;;;;;;23.90;19.57;;;2.50;99.90;;;;;;4977313;28;20459;-69
2021/11/24 09:00:04;;;;;;;24.27;20.63;;;2.50;99.90;;;;;;4977172;28;21005;-69
2021/11/24 09:02:31;;;;;;;21.97;17.90;;;2.60;99.90;;;;;;4976534;28;20873;-70
2021/11/24 09:04:58;;;;;;;20.63;18.00;;;2.60;99.90;;;;;;4976930;28;20490;-69
2021/11/24 09:07:24;;;;;;;22.90;18.10;;;2.70;99.90;;;;;;4976778;28;20776;-66
2021/11/24 09:09:51;;;;;;;24.00;17.73;;;2.80;99.90;;;;;;4977004;28;20484;-67
2021/11/24 09:12:18;;;;;;;20.87;17.70;;;2.80;99.90;;;;;;4976338;28;20578;-66
2021/11/24 09:14:45;;;;;;;19.80;16.77;;;3.00;99.90;;;;;;4976432;28;20459;-66
2021/11/24 09:17:13;;;;;;;22.00;17.87;;;3.10;99.90;;;;;;4976615;28;20506;-67
2021/11/24 09:19:39;;;;;;;23.27;17.83;;;3.10;99.90;;;;;;4976269;28;20506;-66
2021/11/24 09:22:07;;;;;;;22.93;17.70;;;3.20;99.90;;;;;;4976509;28;20970;-66
2021/11/24 09:24:34;;;;;;;23.50;17.53;;;3.30;99.90;;;;;;4976346;28;20466;-65
2021/11/24 09:27:03;;;;;;;23.43;18.50;;;3.40;99.90;;;;;;4976031;28;20966;-66
2021/11/24 09:29:30;;;;;;;20.70;18.43;;;3.50;99.90;;;;;;4976465;28;20459;-66
2021/11/24 09:31:57;;;;;;;25.97;19.00;;;3.60;99.90;;;;;;4975979;28;20537;-66
2021/11/24 09:34:25;;;;;;;20.57;17.60;;;3.60;99.90;;;;;;4976180;28;20590;-67
2021/11/24 09:36:52;;;;;;;23.37;18.63;;;3.70;99.90;;;;;;4976173;28;20466;-66
2021/11/24 09:39:19;;;;;;;22.20;19.73;;;3.80;99.90;;;;;;4976797;28;20458;-66
2021/11/24 09:41:47;;;;;;;18.80;16.77;;;3.90;99.90;;;;;;4976978;28;20542;-67
2021/11/24 09:44:14;;;;;;;21.10;16.30;;;4.00;99.90;;;;;;4976497;28;20459;-66
2021/11/24 09:46:44;;;;;;;22.83;18.83;;;4.00;99.90;;;;;;4976016;28;20459;-66
2021/11/24 09:49:11;;;;;;;22.27;17.60;;;4.10;99.90;;;;;;4975978;28;20482;-66
2021/11/24 09:51:41;;;;;;;22.53;16.50;;;4.20;99.90;;;;;;4975374;28;20910;-66
2021/11/24 09:54:11;;;;;;;18.27;16.37;;;4.20;99.90;;;;;;4975965;28;20458;-66
2021/11/24 09:56:40;;;;;;;16.80;13.90;;;4.30;99.90;;;;;;4975948;28;20459;-66
2021/11/24 09:59:06;;;;;;;18.60;15.60;;;4.40;99.90;;;;;;4975624;28;20518;-66
2021/11/24 10:01:33;;;;;;;20.60;16.33;;;4.50;99.90;;;;;;4975425;28;20483;-66
2021/11/24 10:04:01;;;;;;;21.10;16.03;;;4.60;99.90;;;;;;4975797;28;20466;-66
2021/11/24 10:06:28;;;;;;;17.07;13.57;;;4.70;99.90;;;;;;4975776;28;20455;-66
2021/11/24 10:08:58;;;;;;;17.00;14.97;;;4.70;99.90;;;;;;4975934;28;20458;-66
2021/11/24 10:11:25;;;;;;;15.10;13.47;;;4.70;99.90;;;;;;4975744;28;20482;-67
2021/11/24 10:13:51;;;;;;;23.90;15.97;;;4.80;99.90;;;;;;4975808;28;20455;-66
2021/11/24 10:16:23;;;;;;;17.43;14.03;;;4.80;99.90;;;;;;4975672;28;20509;-66
2021/11/24 10:18:59;;;;;;;15.33;13.40;;;4.80;99.90;;;;;;4975733;28;20456;-67
2021/11/24 10:21:25;;;;;;;17.43;14.30;;;4.80;99.90;;;;;;4976392;28;20479;-67
2021/11/24 10:23:53;;;;;;;18.37;14.33;;;4.90;99.90;;;;;;4976213;28;20459;-66
2021/11/24 10:26:27;;;;;;;18.80;13.63;;;4.90;99.90;;;;;;4975636;28;20506;-67
2021/11/24 10:28:57;;;;;;;18.70;13.30;;;5.00;99.90;;;;;;4975565;28;20479;-66
2021/11/24 10:31:27;;;;;;;18.77;15.20;;;5.00;99.90;;;;;;4975573;28;20479;-66
2021/11/24 10:33:54;;;;;;;17.53;15.67;;;5.00;99.90;;;;;;4975616;28;20459;-67
2021/11/24 10:36:21;;;;;;;16.60;13.97;;;5.00;99.90;;;;;;4975461;28;20513;-67
2021/11/24 10:38:51;;;;;;;17.60;13.50;;;5.00;99.90;;;;;;4975506;28;20455;-65
2021/11/24 10:41:38;;;;;;;13.80;12.30;;;5.10;99.90;;;;;;4975602;28;20518;-67
2021/11/24 10:44:06;;;;;;;14.00;12.43;;;5.20;99.90;;;;;;4975511;28;20514;-66
2021/11/24 10:46:34;;;;;;;14.83;13.23;;;5.30;99.90;;;;;;4975558;28;20459;-66
2021/11/24 10:49:06;;;;;;;19.63;13.27;;;5.50;99.90;;;;;;4975487;28;20495;-66
2021/11/24 10:51:36;;;;;;;17.07;12.70;;;5.50;99.90;;;;;;4975653;28;20487;-66
2021/11/24 10:54:12;;;;;;;13.40;12.00;;;5.50;99.90;;;;;;4975748;28;20455;-66
2021/11/24 10:57:03;;;;;;;16.63;14.13;;;5.50;99.90;;;;;;4975480;28;20443;-66
2021/11/24 10:59:32;;;;;;;16.00;14.30;;;5.50;99.90;;;;;;4975119;28;20958;-66
2021/11/24 11:02:26;;;;;;;15.77;14.00;;;5.50;99.90;;;;;;4974972;28;20487;-66
2021/11/24 11:05:06;;;;;;;18.87;12.23;;;5.60;99.90;;;;;;4979132;28;20975;-66
2021/11/24 11:07:34;;;;;;;14.93;13.23;;;5.60;99.90;;;;;;4979209;28;20916;-66
2021/11/24 11:10:13;;;;;;;14.60;12.90;;;5.70;99.90;;;;;;4978966;28;20935;-66
2021/11/24 11:12:43;;;;;;;13.60;12.20;;;5.80;99.90;;;;;;4979244;28;20470;-66
2021/11/24 11:15:25;;;;;;;15.40;13.80;;;5.90;99.90;;;;;;4979339;28;20443;-65
2021/11/24 11:17:59;;;;;;;15.80;13.50;;;5.90;99.90;;;;;;4979043;28;20459;-66
2021/11/24 11:20:28;;;;;;;15.30;13.73;;;6.00;99.90;;;;;;4988711;28;20930;-67
2021/11/24 11:23:03;;;;;;;17.70;13.77;;;6.10;99.90;;;;;;4982540;28;20537;-66
2021/11/24 11:25:30;;;;;;;16.20;13.37;;;6.20;99.90;;;;;;4978815;28;20443;-66
2021/11/24 11:28:00;;;;;;;14.47;12.37;;;6.30;99.90;;;;;;4978548;28;20458;-65
2021/11/24 11:30:27;;;;;;;14.17;12.77;;;6.30;99.90;;;;;;4978944;28;20511;-65
2021/11/24 11:32:55;;;;;;;14.87;12.80;;;6.40;99.90;;;;;;4978452;28;20847;-66
2021/11/24 11:35:22;;;;;;;15.97;14.27;;;6.30;99.90;;;;;;4978290;28;20509;-65
2021/11/24 11:37:50;;;;;;;15.20;13.60;;;6.30;99.90;;;;;;4978244;28;20509;-67
2021/11/24 11:40:16;;;;;;;14.87;13.37;;;6.30;99.90;;;;;;4977792;28;21014;-67
2021/11/24 11:42:44;;;;;;;17.60;14.20;;;6.30;99.90;;;;;;4978231;28;20794;-66
2021/11/24 11:45:15;;;;;;;17.30;15.37;;;6.40;99.90;;;;;;4978016;28;20538;-66
2021/11/24 11:47:49;;;;;;;14.13;12.67;;;6.40;99.90;;;;;;4978292;28;20443;-66
2021/11/24 11:50:47;;;;;;;13.30;11.90;;;6.40;99.90;;;;;;4977932;28;20471;-68
2021/11/24 11:53:17;;;;;;;12.20;11.00;;;6.50;99.90;;;;;;4978070;28;20473;-66
2021/11/24 11:55:45;;;;;;;12.70;11.43;;;6.40;99.90;;;;;;4978031;28;20779;-66
2021/11/24 11:58:26;;;;;;;14.00;11.97;;;6.40;99.90;;;;;;4978227;28;20529;-66
2021/11/24 12:01:08;;;;;;;13.00;11.70;;;6.40;99.90;;;;;;4977705;28;20489;-66
2021/11/24 12:03:55;;;;;;;12.97;11.77;;;6.40;99.90;;;;;;4978410;28;20455;-66
2021/11/24 12:06:26;;;;;;;13.50;12.03;;;6.40;99.90;;;;;;4977872;28;20469;-66
2021/11/24 12:09:24;;;;;;;13.90;12.47;;;6.30;99.90;;;;;;4977899;28;20443;-66
2021/11/24 12:12:12;;;;;;;15.20;13.20;;;6.40;99.90;;;;;;4917664;29;20557;-66
2021/11/24 12:15:00;;;;;;;12.47;11.27;;;6.30;99.90;;;;;;4972473;28;20474;-66
2021/11/24 12:17:48;;;;;;;13.40;12.00;;;6.30;99.90;;;;;;4977526;28;20439;-66
2021/11/24 12:20:44;;;;;;;13.40;12.00;;;6.40;99.90;;;;;;4977495;28;20439;-68
2021/11/24 12:23:21;;;;;;;13.57;12.20;;;6.30;99.90;;;;;;4976052;28;20930;-66
2021/11/24 12:25:48;;;;;;;13.43;12.10;;;6.50;99.90;;;;;;4977563;28;20439;-65
2021/11/24 12:28:17;;;;;;;13.50;12.10;;;6.50;99.90;;;;;;4977439;28;20451;-66
2021/11/24 12:30:57;;;;;;;14.43;12.90;;;6.60;99.90;;;;;;4979083;28;20475;-66
2021/11/24 12:33:28;;;;;;;16.83;12.67;;;6.60;99.90;;;;;;4984980;28;20522;-66
2021/11/24 12:35:57;;;;;;;12.63;11.33;;;6.70;99.90;;;;;;4983015;28;20442;-66
2021/11/24 12:38:26;;;;;;;13.17;11.77;;;6.80;99.90;;;;;;4977992;28;20518;-67
2021/11/24 12:40:56;;;;;;;13.80;12.40;;;6.60;99.90;;;;;;4977274;28;20546;-65
2021/11/24 12:43:25;;;;;;;14.37;11.87;;;6.70;99.90;;;;;;4977139;28;20452;-66
2021/11/24 12:46:11;;;;;;;12.80;11.53;;;6.70;99.90;;;;;;4977070;28;20470;-67
2021/11/24 12:48:44;;;;;;;13.10;11.70;;;6.80;99.90;;;;;;4977549;28;20450;-67
2021/11/24 12:51:12;;;;;;;14.80;13.37;;;6.80;99.90;;;;;;4977010;28;20482;-67
2021/11/24 12:53:39;;;;;;;15.00;12.80;;;6.70;99.90;;;;;;4977105;28;20505;-68
2021/11/24 12:56:10;;;;;;;15.90;13.40;;;6.60;99.90;;;;;;4976989;28;20459;-67
2021/11/24 12:58:37;;;;;;;16.50;14.10;;;6.70;99.90;;;;;;4977056;28;20884;-66
2021/11/24 13:01:22;;;;;;;12.53;11.23;;;6.50;99.90;;;;;;4976817;28;20555;-67
2021/11/24 13:03:59;;;;;;;15.37;12.50;;;6.50;99.90;;;;;;4976998;28;20490;-66
2021/11/24 13:06:27;;;;;;;14.30;12.70;;;6.60;99.90;;;;;;4977534;28;20831;-66
2021/11/24 13:09:15;;;;;;;17.03;12.47;;;6.70;99.90;;;;;;4976830;28;20451;-66
2021/11/24 13:11:52;;;;;;;14.33;12.73;;;6.70;99.90;;;;;;4974264;28;20526;-66
2021/11/24 13:14:22;;;;;;;17.33;12.67;;;6.50;99.90;;;;;;4976713;28;20466;-67
2021/11/24 13:17:05;;;;;;;14.10;12.70;;;6.40;99.90;;;;;;4977406;28;20455;-67
2021/11/24 13:19:37;;;;;;;18.23;12.90;;;6.40;99.90;;;;;;4977011;28;20861;-66
2021/11/24 13:22:05;;;;;;;12.63;11.40;;;6.30;99.90;;;;;;4976735;28;20533;-66
2021/11/24 13:24:32;;;;;;;14.07;12.60;;;6.20;99.90;;;;;;4977064;28;20490;-66
2021/11/24 13:27:00;;;;;;;15.17;12.50;;;6.30;99.90;;;;;;4976426;28;20462;-66
2021/11/24 13:29:29;;;;;;;15.20;13.60;;;6.40;99.90;;;;;;4976571;28;20465;-66
2021/11/24 13:32:04;;;;;;;15.27;13.13;;;6.40;99.90;;;;;;4976723;28;20478;-65
2021/11/24 13:34:31;;;;;;;14.87;13.37;;;6.40;99.90;;;;;;4976882;28;20466;-67
2021/11/24 13:36:59;;;;;;;15.10;13.50;;;6.40;99.90;;;;;;4976357;28;20451;-66
2021/11/24 13:39:27;;;;;;;15.77;13.17;;;6.40;99.90;;;;;;4976049;28;20459;-66
2021/11/24 13:42:08;;;;;;;16.67;13.77;;;6.40;99.90;;;;;;4975772;28;21064;-67
2021/11/24 13:44:45;;;;;;;16.40;14.50;;;6.40;99.90;;;;;;4976549;28;20439;-67
2021/11/24 13:47:11;;;;;;;15.80;14.00;;;6.30;99.90;;;;;;4975478;28;20443;-66
2021/11/24 13:49:43;;;;;;;15.90;13.40;;;6.30;99.90;;;;;;4975776;28;20478;-67
2021/11/24 13:52:13;;;;;;;18.23;13.47;;;6.40;99.90;;;;;;4975541;28;21005;-67
2021/11/24 13:54:41;;;;;;;16.20;13.40;;;6.40;99.90;;;;;;4975403;28;20490;-67
2021/11/24 13:57:09;;;;;;;15.00;13.23;;;6.40;99.90;;;;;;4975953;28;20459;-66
2021/11/24 13:59:38;;;;;;;16.47;13.93;;;6.30;99.90;;;;;;4976111;28;20491;-66
2021/11/24 14:02:09;;;;;;;15.53;13.50;;;6.30;99.90;;;;;;4975679;28;20533;-65
2021/11/24 14:04:38;;;;;;;17.33;14.77;;;6.30;99.90;;;;;;4975962;28;20443;-65
2021/11/24 14:07:06;;;;;;;17.13;15.27;;;6.20;99.90;;;;;;4982345;28;20521;-67
2021/11/24 14:09:42;;;;;;;16.53;14.73;;;6.10;99.90;;;;;;4982866;28;20465;-65
2021/11/24 14:12:11;;;;;;;18.00;14.47;;;6.00;99.90;;;;;;4975631;28;20479;-66
2021/11/24 14:15:03;;;;;;;19.27;15.50;;;6.00;99.90;;;;;;4976125;28;20482;-65
2021/11/24 14:17:36;;;;;;;18.13;14.80;;;6.00;99.90;;;;;;4975705;28;20790;-66
2021/11/24 14:20:23;;;;;;;19.00;15.97;;;5.90;99.90;;;;;;4975715;28;20527;-65
2021/11/24 14:22:55;;;;;;;16.30;14.57;;;5.80;99.90;;;;;;4975292;28;20459;-66
2021/11/24 14:25:26;;;;;;;19.90;16.67;;;5.80;99.90;;;;;;4975455;28;20443;-66
2021/11/24 14:27:54;;;;;;;18.57;16.30;;;5.90;99.90;;;;;;4975352;28;20458;-67
2021/11/24 14:30:23;;;;;;;18.57;15.30;;;5.70;99.90;;;;;;4975578;28;20514;-66
2021/11/24 14:32:50;;;;;;;18.97;17.00;;;5.60;99.90;;;;;;4976120;28;20949;-66
2021/11/24 14:35:19;;;;;;;18.87;16.87;;;5.60;99.90;;;;;;4975482;28;20874;-67
2021/11/24 14:37:47;;;;;;;18.00;15.80;;;5.50;99.90;;;;;;4975119;28;20466;-65
2021/11/24 14:40:15;;;;;;;18.50;14.40;;;5.40;99.90;;;;;;4975063;28;20458;-66
2021/11/24 14:42:44;;;;;;;22.20;17.27;;;5.20;99.90;;;;;;4974731;28;20471;-66
2021/11/24 14:45:12;;;;;;;20.00;17.23;;;5.10;99.90;;;;;;4975298;28;20821;-66
2021/11/24 14:47:39;;;;;;;22.50;17.13;;;4.90;99.90;;;;;;4975298;28;21005;-66
2021/11/24 14:50:07;;;;;;;21.23;17.60;;;4.80;99.90;;;;;;4975580;28;20458;-65
2021/11/24 14:52:34;;;;;;;24.03;17.03;;;4.60;99.90;;;;;;4975544;28;20471;-65
2021/11/24 14:55:00;;;;;;;19.90;17.27;;;4.60;99.90;;;;;;4975155;28;20486;-67
2021/11/24 14:57:27;;;;;;;23.87;16.50;;;4.50;99.90;;;;;;4976643;28;20522;-66
2021/11/24 14:59:55;;;;;;;27.10;18.10;;;4.40;99.90;;;;;;4975473;28;20451;-66
2021/11/24 15:02:22;;;;;;;22.60;17.93;;;4.10;99.90;;;;;;4975474;28;20514;-66
2021/11/24 15:04:48;;;;;;;21.10;17.50;;;3.90;99.90;;;;;;4976615;28;20467;-65
2021/11/24 15:07:15;;;;;;;24.20;18.60;;;3.80;99.90;;;;;;4975800;28;20459;-65
2021/11/24 15:09:42;;;;;;;20.20;16.20;;;3.60;99.90;;;;;;4975725;28;20514;-66
2021/11/24 15:12:13;;;;;;;21.20;16.97;;;3.50;99.90;;;;;;4974917;28;20486;-67
2021/11/24 15:14:40;;;;;;;22.10;16.43;;;3.40;99.90;;;;;;4975476;28;20471;-67
2021/11/24 15:17:08;;;;;;;18.40;16.27;;;3.30;99.90;;;;;;4975211;28;20546;-67
2021/11/24 15:19:35;;;;;;;21.40;17.10;;;3.20;99.90;;;;;;4974824;28;20907;-66
2021/11/24 15:22:02;;;;;;;19.47;17.00;;;3.10;99.90;;;;;;4975587;28;20471;-67
2021/11/24 15:24:28;;;;;;;21.33;16.77;;;3.00;99.90;;;;;;4974992;28;20513;-66
2021/11/24 15:26:55;;;;;;;23.73;17.30;;;3.00;99.90;;;;;;4974861;28;20454;-67
2021/11/24 15:29:22;;;;;;;21.57;16.97;;;2.80;99.90;;;;;;4974912;28;20982;-67
2021/11/24 15:31:50;;;;;;;22.10;16.70;;;2.80;99.90;;;;;;4976143;28;20479;-67
2021/11/24 15:34:19;;;;;;;22.70;17.27;;;2.70;99.90;;;;;;4979808;28;20510;-67
2021/11/24 15:36:45;;;;;;;21.50;17.10;;;2.60;99.90;;;;;;4978605;28;20463;-67
2021/11/24 15:39:12;;;;;;;25.17;19.27;;;2.50;99.90;;;;;;4975321;28;20461;-67
2021/11/24 15:41:39;;;;;;;20.53;16.13;;;2.50;99.90;;;;;;4974752;28;20549;-66
2021/11/24 15:44:09;;;;;;;23.63;19.10;;;2.40;99.90;;;;;;4975038;28;20458;-67
2021/11/24 15:46:36;;;;;;;22.43;16.97;;;2.30;99.90;;;;;;4974830;28;20829;-67
2021/11/24 15:49:03;;;;;;;25.17;17.00;;;2.10;99.90;;;;;;4974844;28;20459;-67
2021/11/24 15:51:31;;;;;;;23.97;17.37;;;2.00;99.90;;;;;;4978403;28;20479;-67
2021/11/24 15:53:57;;;;;;;22.87;17.80;;;2.00;99.90;;;;;;4978352;28;20525;-67
2021/11/24 15:56:24;;;;;;;23.80;18.10;;;1.90;99.90;;;;;;4978524;28;20455;-68
2021/11/24 15:58:53;;;;;;;23.93;18.37;;;1.90;99.90;;;;;;4978591;28;20459;-68
2021/11/24 16:01:20;;;;;;;22.43;16.93;;;1.90;99.90;;;;;;4977860;28;20482;-67
2021/11/24 16:03:47;;;;;;;25.30;18.97;;;1.80;99.90;;;;;;4978319;28;20450;-67
2021/11/24 16:06:14;;;;;;;22.37;16.67;;;1.70;99.90;;;;;;4978611;28;20451;-67
2021/11/24 16:08:44;;;;;;;28.47;18.80;;;1.70;99.90;;;;;;4978351;28;20550;-67
2021/11/24 16:11:12;;;;;;;23.80;18.30;;;1.70;99.90;;;;;;4979247;28;20523;-69
2021/11/24 16:13:39;;;;;;;24.60;18.37;;;1.80;99.90;;;;;;4977988;28;20483;-69
2021/11/24 16:16:07;;;;;;;27.10;19.00;;;1.80;99.90;;;;;;4977587;28;20505;-69
2021/11/24 16:18:34;;;;;;;23.10;17.63;;;1.80;99.90;;;;;;4978272;28;20451;-69
2021/11/24 16:21:01;;;;;;;23.57;17.50;;;1.90;99.90;;;;;;4977574;28;20475;-70
2021/11/24 16:23:27;;;;;;;21.87;16.30;;;1.90;99.90;;;;;;4977951;28;20486;-68
2021/11/24 16:25:56;;;;;;;22.23;17.17;;;2.00;99.90;;;;;;4978042;28;20458;-70
2021/11/24 16:28:22;;;;;;;22.60;17.43;;;2.10;99.90;;;;;;4978034;28;20462;-69
2021/11/24 16:30:49;;;;;;;23.53;18.53;;;2.20;99.90;;;;;;4978050;28;20517;-70
2021/11/24 16:33:16;;;;;;;27.43;18.57;;;2.20;99.90;;;;;;4977964;28;20463;-69
2021/11/24 16:35:43;;;;;;;23.80;17.27;;;2.20;99.90;;;;;;4977991;28;20463;-68
2021/11/24 16:38:10;;;;;;;24.67;17.77;;;2.30;99.90;;;;;;4977855;28;20455;-68
2021/11/24 16:40:37;;;;;;;24.27;17.10;;;2.30;99.90;;;;;;4977689;28;20482;-69
2021/11/24 16:43:05;;;;;;;22.73;16.60;;;2.40;99.90;;;;;;4977949;28;20872;-69
2021/11/24 16:45:32;;;;;;;23.27;17.97;;;2.40;99.90;;;;;;4977953;28;20452;-69
2021/11/24 16:47:59;;;;;;;23.33;16.47;;;2.40;99.90;;;;;;4977589;28;20459;-69
2021/11/24 16:50:26;;;;;;;20.73;15.40;;;2.40;99.90;;;;;;4977045;28;20462;-69
2021/11/24 16:52:53;;;;;;;22.50;16.07;;;2.40;99.90;;;;;;4977061;28;20456;-69
2021/11/24 16:55:20;;;;;;;25.80;17.47;;;2.50;99.90;;;;;;4977042;28;20490;-70
2021/11/24 16:57:47;;;;;;;26.83;18.53;;;2.40;99.90;;;;;;4986657;28;20463;-69
2021/11/24 17:00:19;;;;;;;23.73;17.30;;;2.40;99.90;;;;;;4984922;28;20506;-70
2021/11/24 17:02:46;;;;;;;24.17;17.83;;;2.30;99.90;;;;;;4976991;28;20448;-69
2021/11/24 17:05:13;;;;;;;22.37;17.67;;;2.30;99.90;;;;;;4976424;28;20459;-69
2021/11/24 17:07:41;;;;;;;28.00;17.83;;;2.30;99.90;;;;;;4976881;28;20462;-69
2021/11/24 17:10:10;;;;;;;26.00;17.60;;;2.30;99.90;;;;;;4976682;28;20513;-69
2021/11/24 17:12:37;;;;;;;23.93;16.50;;;2.30;99.90;;;;;;4977331;28;20530;-69
2021/11/24 17:15:05;;;;;;;22.53;17.77;;;2.30;99.90;;;;;;4977198;28;20486;-69
2021/11/24 17:17:33;;;;;;;24.43;17.23;;;2.30;99.90;;;;;;4976913;28;20466;-68
2021/11/24 17:20:00;;;;;;;23.07;17.13;;;2.30;99.90;;;;;;4976687;28;20459;-69
2021/11/24 17:22:27;;;;;;;23.70;18.13;;;2.30;99.90;;;;;;4976124;28;20991;-68
2021/11/24 17:24:54;;;;;;;25.27;18.63;;;2.30;99.90;;;;;;4976298;28;20547;-68
2021/11/24 17:27:21;;;;;;;24.10;18.20;;;2.30;99.90;;;;;;4976245;28;20986;-68
2021/11/24 17:29:48;;;;;;;24.90;18.10;;;2.20;99.90;;;;;;4976278;28;20463;-68
2021/11/24 17:32:15;;;;;;;24.30;19.40;;;2.20;99.90;;;;;;4976160;28;20512;-68
2021/11/24 17:34:43;;;;;;;21.63;16.47;;;2.10;99.90;;;;;;4975935;28;20481;-67
2021/11/24 17:37:10;;;;;;;23.50;17.07;;;2.10;99.90;;;;;;4975873;28;20485;-67
2021/11/24 17:39:37;;;;;;;23.80;17.13;;;2.00;99.90;;;;;;4975577;28;20459;-67
2021/11/24 17:42:04;;;;;;;25.67;17.93;;;2.00;99.90;;;;;;4975932;28;20475;-67
2021/11/24 17:44:31;;;;;;;22.83;17.17;;;2.00;99.90;;;;;;4975683;28;20459;-68
2021/11/24 17:47:03;;;;;;;25.20;18.20;;;2.10;99.90;;;;;;4975945;28;20869;-68
2021/11/24 17:49:29;;;;;;;24.17;17.80;;;2.00;99.90;;;;;;4975945;28;20510;-68